Impacts TAF Board INFO
FOR SITUATIONAL AWARENESS. NOT TO BE USED FOR FLIGHT PLANNING PURPOSES.
IDs:

KMDW - Chicago/Midway Intl, IL, US

Issued at 2328 UTC 24 May 2018
Updated at 0124 UTC 25 May 2018
Potential Impact None Slight Moderate High
Time<<25/14Z 25/15Z 25/16Z 25/17Z 25/18Z 25/19Z 25/20Z 25/21Z 25/22Z 25/23Z 26/00Z 26/01Z 26/02Z>>
Type PRVL PRVL PRVL PRVL PRVL PRVL PRVL PRVL PRVL PRVL PRVL PRVL PRVL
VIS >6 >6 >6 >6 >6 >6 >6 >6 >6 >6 >6 >6 >6
CIG -- 250 250 250 250 250 250 250 250 250 250 250 250
Cover FEW BKN BKN BKN BKN BKN BKN BKN BKN BKN BKN BKN BKN
FltCat VFR VFR VFR VFR VFR VFR VFR VFR VFR VFR VFR VFR VFR
WX -- -- -- -- -- -- -- -- -- -- -- -- --
WDir 200 210 210 210 210 210 210 210 210 210 210 210 210
WSpd 6 12 12 12 12 12 12 12 12 12 12 12 7
WGst -- -- -- -- -- -- -- -- -- -- -- -- --

Raw TAF
KMDW 242328Z 2500/2606 12007KT P6SM FEW250
  FM250700 20006KT P6SM FEW250
  FM251500 21012KT P6SM SCT060 SCT150 BKN250
  FM260200 21007KT P6SM SCT150 BKN250


METAR Board
Radar Display
Forecast Discussion

FOR SITUATIONAL AWARENESS. NOT TO BE USED FOR FLIGHT PLANNING PURPOSES.